createdAt,value
2022-08-19T00:01:38.090Z,20.59
2022-08-19T00:04:08.657Z,20.63
2022-08-19T00:06:37.527Z,20.64
2022-08-19T00:09:06.530Z,20.65
2022-08-19T00:11:36.944Z,20.73
2022-08-19T00:14:06.149Z,20.69
2022-08-19T00:16:33.885Z,20.65
2022-08-19T00:19:01.293Z,20.62
2022-08-19T00:21:28.734Z,20.65
2022-08-19T00:24:00.601Z,20.60
2022-08-19T00:26:28.920Z,20.61
2022-08-19T00:28:56.855Z,20.59
2022-08-19T00:31:26.121Z,20.57
2022-08-19T00:33:53.521Z,20.56
2022-08-19T00:36:21.609Z,20.48
2022-08-19T00:38:49.467Z,20.49
2022-08-19T00:41:21.662Z,20.51
2022-08-19T00:44:26.813Z,20.51
2022-08-19T00:46:58.075Z,20.49
2022-08-19T00:49:29.818Z,20.39
2022-08-19T00:52:03.445Z,20.44
2022-08-19T00:54:32.439Z,20.39
2022-08-19T00:57:00.710Z,20.36
2022-08-19T01:00:00.992Z,20.33
2022-08-19T01:02:18.373Z,20.30
2022-08-19T01:04:45.724Z,20.30
2022-08-19T01:07:15.200Z,20.33
2022-08-19T01:09:45.009Z,20.31
2022-08-19T01:12:12.726Z,20.27
2022-08-19T01:14:41.288Z,20.27
2022-08-19T01:17:11.995Z,20.38
2022-08-19T01:19:43.619Z,20.44
2022-08-19T01:22:33.664Z,20.36
2022-08-19T01:25:01.861Z,20.39
2022-08-19T01:27:43.236Z,20.41
2022-08-19T01:30:19.136Z,20.46
2022-08-19T01:32:46.804Z,20.30
2022-08-19T01:35:18.704Z,20.34
2022-08-19T01:37:49.375Z,20.43
2022-08-19T01:40:17.890Z,20.36
2022-08-19T01:42:45.332Z,20.35
2022-08-19T01:45:12.775Z,20.29
2022-08-19T01:47:40.322Z,20.22
2022-08-19T01:50:10.148Z,20.16
2022-08-19T01:52:39.069Z,20.16
2022-08-19T01:55:08.951Z,20.18
2022-08-19T01:57:36.823Z,20.06
2022-08-19T02:00:07.925Z,20.04
2022-08-19T02:02:39.077Z,20.06
2022-08-19T02:05:08.718Z,19.98
2022-08-19T02:07:41.225Z,19.95
2022-08-19T02:10:16.650Z,20.04
2022-08-19T02:12:44.616Z,20.00
2022-08-19T02:15:12.890Z,20.03
2022-08-19T02:17:40.330Z,19.98
2022-08-19T02:20:08.738Z,20.08
2022-08-19T02:22:36.445Z,20.08
2022-08-19T02:25:05.839Z,20.06
2022-08-19T02:27:34.370Z,19.95
2022-08-19T02:30:02.064Z,19.79
2022-08-19T02:32:31.387Z,19.80
2022-08-19T02:34:58.811Z,19.56
2022-08-19T02:37:44.595Z,19.39
2022-08-19T02:40:12.864Z,19.31
2022-08-19T02:42:41.831Z,19.21
2022-08-19T02:45:09.738Z,19.40
2022-08-19T02:47:37.133Z,19.54
2022-08-19T02:50:05.922Z,19.66
2022-08-19T02:52:34.798Z,19.81
2022-08-19T02:55:02.338Z,19.75
2022-08-19T02:57:32.282Z,19.61
2022-08-19T02:59:59.962Z,19.66
2022-08-19T03:02:28.148Z,19.69
2022-08-19T03:04:55.540Z,19.63
2022-08-19T03:07:22.913Z,19.57
2022-08-19T03:09:50.291Z,19.65
2022-08-19T03:12:17.705Z,19.62
2022-08-19T03:14:46.605Z,19.43
2022-08-19T03:17:14.359Z,19.28
2022-08-19T03:19:41.833Z,19.14
2022-08-19T03:22:09.697Z,19.24
2022-08-19T03:24:37.855Z,19.23
2022-08-19T03:27:06.053Z,19.14
2022-08-19T03:29:34.219Z,19.20
2022-08-19T03:32:32.629Z,19.00
2022-08-19T03:34:58.474Z,18.87
2022-08-19T03:37:26.928Z,18.64
2022-08-19T03:39:54.380Z,18.55
2022-08-19T03:42:31.954Z,18.54
2022-08-19T03:45:01.058Z,18.73
2022-08-19T03:47:28.469Z,18.81
2022-08-19T03:49:55.853Z,18.84
2022-08-19T03:52:23.247Z,18.98
2022-08-19T03:54:50.556Z,18.90
2022-08-19T03:57:17.916Z,19.03
2022-08-19T03:59:45.666Z,18.96
2022-08-19T04:02:14.121Z,18.92
2022-08-19T04:04:44.127Z,18.85
2022-08-19T04:07:16.183Z,18.88
2022-08-19T04:09:43.661Z,18.91
2022-08-19T04:12:11.013Z,19.00
2022-08-19T04:14:38.455Z,19.10
2022-08-19T04:17:06.215Z,19.05
2022-08-19T04:19:35.397Z,19.07
2022-08-19T04:22:03.614Z,19.15
2022-08-19T04:24:31.233Z,19.19
2022-08-19T04:27:00.174Z,19.19
2022-08-19T04:29:28.010Z,19.22
2022-08-19T04:31:57.113Z,19.12
2022-08-19T04:34:27.545Z,19.14
2022-08-19T04:36:56.679Z,19.22
2022-08-19T04:39:49.400Z,19.30
2022-08-19T04:42:36.988Z,19.33
2022-08-19T04:45:12.491Z,19.28
2022-08-19T04:47:49.382Z,19.36
2022-08-19T04:50:28.414Z,19.34
2022-08-19T04:52:56.909Z,19.34
2022-08-19T04:55:26.704Z,19.37
2022-08-19T04:57:54.948Z,19.36
2022-08-19T05:00:22.413Z,19.36
2022-08-19T05:02:50.272Z,19.41
2022-08-19T05:05:18.157Z,19.44
2022-08-19T05:07:45.545Z,19.46
2022-08-19T05:10:13.670Z,19.41
2022-08-19T05:12:41.208Z,19.39
2022-08-19T05:15:12.091Z,19.39
2022-08-19T05:17:59.450Z,19.44
2022-08-19T05:20:45.258Z,19.39
2022-08-19T05:23:22.146Z,19.47
2022-08-19T05:25:51.506Z,19.48
2022-08-19T05:28:20.196Z,19.52
2022-08-19T05:30:47.893Z,19.55
2022-08-19T05:33:15.454Z,19.48
2022-08-19T05:35:42.799Z,19.52
2022-08-19T05:38:10.282Z,19.54
2022-08-19T05:40:38.599Z,19.59
2022-08-19T05:43:07.737Z,19.64
2022-08-19T05:45:41.311Z,19.64
2022-08-19T05:48:12.020Z,19.62
2022-08-19T05:50:41.137Z,19.63
2022-08-19T05:53:09.918Z,19.71
2022-08-19T05:55:39.429Z,19.74
2022-08-19T05:58:08.534Z,19.74
2022-08-19T06:00:37.477Z,19.67
2022-08-19T06:03:12.385Z,19.75
2022-08-19T06:05:46.191Z,19.73
2022-08-19T06:08:19.647Z,19.73
2022-08-19T06:10:47.227Z,19.69
2022-08-19T06:13:14.788Z,19.71
2022-08-19T06:15:45.103Z,19.71
2022-08-19T06:18:12.655Z,19.79
2022-08-19T06:20:55.617Z,19.79
2022-08-19T06:23:24.381Z,19.88
2022-08-19T06:25:51.912Z,19.98
2022-08-19T06:28:19.472Z,19.99
2022-08-19T06:30:47.170Z,20.05
2022-08-19T06:33:14.534Z,20.10
2022-08-19T06:35:42.916Z,20.26
2022-08-19T06:38:10.528Z,20.31
2022-08-19T06:40:39.308Z,20.36
2022-08-19T06:43:08.550Z,20.42
2022-08-19T06:45:39.698Z,20.56
2022-08-19T06:48:07.987Z,20.71
2022-08-19T06:50:39.290Z,21.03
2022-08-19T06:53:07.066Z,21.28
2022-08-19T06:55:34.461Z,21.41
2022-08-19T06:58:05.244Z,21.48
2022-08-19T07:00:33.078Z,21.40
2022-08-19T07:03:05.988Z,21.35
2022-08-19T07:05:45.605Z,21.44
2022-08-19T07:08:14.273Z,21.48
2022-08-19T07:10:45.820Z,21.42
2022-08-19T07:13:13.235Z,21.43
2022-08-19T07:15:41.008Z,21.48
2022-08-19T07:18:11.646Z,21.35
2022-08-19T07:20:41.941Z,21.32
2022-08-19T07:23:10.567Z,21.35
2022-08-19T07:25:44.467Z,21.36
2022-08-19T07:28:15.789Z,21.29
2022-08-19T07:30:52.773Z,21.22
2022-08-19T07:33:20.735Z,21.17
2022-08-19T07:35:48.179Z,21.11
2022-08-19T07:38:16.227Z,21.09
2022-08-19T07:40:46.638Z,21.03
2022-08-19T07:43:14.283Z,21.01
2022-08-19T07:45:45.473Z,20.99
2022-08-19T07:48:13.440Z,20.98
2022-08-19T07:50:40.966Z,20.99
2022-08-19T07:53:08.369Z,21.00
2022-08-19T07:55:42.086Z,20.96
2022-08-19T07:58:14.812Z,20.98
2022-08-19T08:00:43.223Z,20.98
2022-08-19T08:03:11.338Z,20.95
2022-08-19T08:05:57.333Z,20.93
2022-08-19T08:08:44.508Z,21.01
2022-08-19T08:11:19.857Z,21.03
2022-08-19T08:14:00.276Z,21.08
2022-08-19T08:16:30.975Z,20.98
2022-08-19T08:18:59.077Z,21.02
2022-08-19T08:21:26.621Z,21.03
2022-08-19T08:23:56.481Z,21.01
2022-08-19T08:26:24.425Z,21.05
2022-08-19T08:28:52.281Z,21.11
2022-08-19T08:31:20.234Z,21.07
2022-08-19T08:33:48.487Z,21.08
2022-08-19T08:36:16.666Z,21.16
2022-08-19T08:38:47.054Z,21.20
2022-08-19T08:41:37.724Z,21.36
2022-08-19T08:44:05.698Z,21.49
2022-08-19T08:46:40.983Z,21.70
2022-08-19T08:49:21.474Z,21.85
2022-08-19T08:52:32.160Z,21.96
2022-08-19T08:55:10.189Z,21.97
2022-08-19T08:57:44.026Z,22.04
2022-08-19T09:00:19.208Z,21.99
2022-08-19T09:02:50.768Z,22.01
2022-08-19T09:05:22.270Z,21.93
2022-08-19T09:08:12.090Z,21.94
2022-08-19T09:10:55.732Z,22.12
2022-08-19T09:13:41.733Z,22.19
2022-08-19T09:16:19.325Z,22.13
2022-08-19T09:19:02.897Z,22.07
2022-08-19T09:21:34.280Z,22.11
2022-08-19T09:24:03.415Z,21.88
2022-08-19T09:26:47.614Z,21.95
2022-08-19T09:29:22.459Z,22.01
2022-08-19T09:31:50.954Z,22.16
2022-08-19T09:34:22.117Z,22.25
2022-08-19T09:36:54.088Z,22.17
2022-08-19T09:39:22.672Z,22.09
2022-08-19T09:41:50.956Z,22.05
2022-08-19T09:44:21.183Z,22.04
2022-08-19T09:46:49.314Z,22.00
2022-08-19T09:49:18.515Z,21.91
2022-08-19T09:51:51.196Z,21.87
2022-08-19T09:54:23.639Z,21.83
2022-08-19T09:56:53.709Z,21.74
2022-08-19T09:59:21.405Z,21.70
2022-08-19T10:01:48.882Z,21.81
2022-08-19T10:04:20.437Z,21.96
2022-08-19T10:06:51.735Z,22.08
2022-08-19T10:09:33.517Z,22.10
2022-08-19T10:12:03.846Z,22.19
2022-08-19T10:14:32.160Z,22.21
2022-08-19T10:17:01.289Z,22.16
2022-08-19T10:19:36.870Z,22.20
2022-08-19T10:22:05.891Z,22.18
2022-08-19T10:24:37.501Z,22.04
2022-08-19T10:27:06.557Z,21.91
2022-08-19T10:29:36.284Z,21.65
2022-08-19T10:32:14.289Z,21.59
2022-08-19T10:34:48.227Z,21.54
2022-08-19T10:37:28.874Z,21.46
2022-08-19T10:39:58.898Z,21.28
2022-08-19T10:42:26.523Z,20.99
2022-08-19T10:44:53.874Z,20.56
2022-08-19T10:47:26.109Z,20.30
2022-08-19T10:50:17.405Z,20.11
2022-08-19T10:52:49.800Z,20.02
2022-08-19T10:55:39.348Z,19.82
2022-08-19T10:58:17.038Z,19.60
2022-08-19T11:00:44.960Z,19.58
2022-08-19T11:03:12.743Z,19.51
2022-08-19T11:05:40.937Z,19.40
2022-08-19T11:08:23.222Z,19.38
2022-08-19T11:11:00.124Z,19.59
2022-08-19T11:13:37.014Z,19.73
2022-08-19T11:16:14.877Z,19.67
2022-08-19T11:18:46.420Z,19.59
2022-08-19T11:21:21.122Z,19.60
2022-08-19T11:23:50.169Z,19.71
2022-08-19T11:26:18.318Z,19.99
2022-08-19T11:28:46.343Z,19.93
2022-08-19T11:31:15.721Z,19.90
2022-08-19T11:33:47.092Z,19.91
2022-08-19T11:36:16.331Z,19.75
2022-08-19T11:38:44.217Z,19.83
2022-08-19T11:41:12.039Z,19.78
2022-08-19T11:43:40.858Z,19.75
2022-08-19T11:46:14.174Z,19.77
2022-08-19T11:48:42.126Z,19.77
2022-08-19T11:51:12.527Z,19.83
2022-08-19T11:53:40.375Z,19.87
2022-08-19T11:56:09.556Z,19.89
2022-08-19T11:58:37.226Z,19.93
2022-08-19T12:01:08.691Z,19.92
2022-08-19T12:03:36.502Z,19.96
2022-08-19T12:06:13.834Z,20.08
2022-08-19T12:08:42.353Z,20.20
2022-08-19T12:11:10.982Z,20.20
2022-08-19T12:13:39.845Z,20.29
2022-08-19T12:16:13.049Z,20.23
2022-08-19T12:18:47.656Z,20.35
2022-08-19T12:21:16.322Z,20.51
2022-08-19T12:23:45.797Z,20.48
2022-08-19T12:26:13.458Z,20.57
2022-08-19T12:28:40.833Z,20.59
2022-08-19T12:31:08.517Z,20.76
2022-08-19T12:33:36.326Z,20.68
2022-08-19T12:36:06.386Z,20.79
2022-08-19T12:38:35.456Z,20.83
2022-08-19T12:41:06.420Z,20.56
2022-08-19T12:43:35.906Z,20.46
2022-08-19T12:46:05.223Z,20.46
2022-08-19T12:48:34.794Z,20.53
2022-08-19T12:51:10.267Z,20.67
2022-08-19T12:53:39.029Z,20.70
2022-08-19T12:56:12.368Z,20.79
2022-08-19T12:58:42.586Z,20.86
2022-08-19T13:01:17.843Z,20.84
2022-08-19T13:03:49.441Z,20.83
2022-08-19T13:06:19.039Z,20.81
2022-08-19T13:08:47.716Z,20.74
2022-08-19T13:11:20.107Z,20.60
2022-08-19T13:13:49.446Z,20.61
2022-08-19T13:16:17.040Z,20.51
2022-08-19T13:18:48.265Z,20.49
2022-08-19T13:21:15.942Z,20.51
2022-08-19T13:23:43.543Z,20.64
2022-08-19T13:26:12.733Z,20.61
2022-08-19T13:29:00.168Z,20.52
2022-08-19T13:31:48.742Z,20.53
2022-08-19T13:34:18.030Z,20.49
2022-08-19T13:36:45.468Z,20.41
2022-08-19T13:39:13.384Z,20.43
2022-08-19T13:41:48.989Z,20.61
2022-08-19T13:44:19.236Z,20.68
2022-08-19T13:46:48.057Z,20.54
2022-08-19T13:49:15.859Z,20.56
2022-08-19T13:51:44.733Z,20.58
2022-08-19T13:54:12.979Z,20.82
2022-08-19T13:56:45.227Z,20.86
2022-08-19T13:59:13.101Z,21.11
2022-08-19T14:01:40.939Z,21.32
2022-08-19T14:04:09.092Z,21.59
2022-08-19T14:06:36.985Z,21.50
2022-08-19T14:09:05.656Z,21.84
2022-08-19T14:11:33.068Z,21.92
2022-08-19T14:14:00.522Z,21.91
2022-08-19T14:16:28.305Z,22.21
2022-08-19T14:18:56.019Z,22.08
2022-08-19T14:21:25.245Z,21.85
2022-08-19T14:23:53.374Z,21.45
2022-08-19T14:26:22.016Z,21.41
2022-08-19T14:28:50.356Z,21.31
2022-08-19T14:31:19.950Z,21.31
2022-08-19T14:33:48.784Z,21.21
2022-08-19T14:36:16.188Z,20.98
2022-08-19T14:38:44.403Z,20.98
2022-08-19T14:41:17.242Z,20.68
2022-08-19T14:43:50.791Z,20.54
2022-08-19T14:46:23.462Z,20.56
2022-08-19T14:48:53.126Z,20.57
2022-08-19T14:51:22.635Z,20.46
2022-08-19T14:53:51.202Z,20.48
2022-08-19T14:56:22.454Z,20.62
2022-08-19T14:58:53.382Z,20.39
2022-08-19T15:01:22.882Z,20.26
2022-08-19T15:03:53.965Z,20.26
2022-08-19T15:06:22.014Z,20.17
2022-08-19T15:08:51.771Z,20.30
2022-08-19T15:11:22.066Z,20.24
2022-08-19T15:13:49.665Z,20.02
2022-08-19T15:16:18.501Z,20.06
2022-08-19T15:18:47.141Z,20.06
2022-08-19T15:21:17.440Z,19.95
2022-08-19T15:23:55.056Z,19.69
2022-08-19T15:26:22.738Z,19.50
2022-08-19T15:28:50.218Z,19.32
2022-08-19T15:31:28.417Z,19.15
2022-08-19T15:33:58.444Z,19.08
2022-08-19T15:36:27.027Z,18.99
2022-08-19T15:38:55.528Z,18.95
2022-08-19T15:41:27.449Z,18.88
2022-08-19T15:43:59.504Z,18.84
2022-08-19T15:46:29.138Z,18.87
2022-08-19T15:49:00.075Z,18.80
2022-08-19T15:51:30.537Z,18.80
2022-08-19T15:53:59.340Z,18.76
2022-08-19T15:56:27.646Z,18.75
2022-08-19T15:59:13.799Z,18.72
2022-08-19T16:02:00.805Z,18.81
2022-08-19T16:04:46.788Z,18.85
2022-08-19T16:07:14.373Z,18.83
2022-08-19T16:09:50.030Z,18.87
2022-08-19T16:12:18.980Z,18.92
2022-08-19T16:14:48.501Z,18.88
2022-08-19T16:17:16.827Z,18.89
2022-08-19T16:19:44.292Z,18.80
2022-08-19T16:22:11.694Z,18.81
2022-08-19T16:24:39.100Z,18.83
2022-08-19T16:27:06.519Z,18.83
2022-08-19T16:29:39.127Z,18.84
2022-08-19T16:32:10.394Z,18.88
2022-08-19T16:34:40.066Z,18.88
2022-08-19T16:37:07.943Z,18.88
2022-08-19T16:39:35.356Z,18.86
2022-08-19T16:42:04.827Z,18.90
2022-08-19T16:44:35.861Z,18.87
2022-08-19T16:47:03.346Z,18.91
2022-08-19T16:49:54.129Z,18.95
2022-08-19T16:52:20.069Z,19.02
2022-08-19T16:54:48.078Z,19.17
2022-08-19T16:57:16.067Z,19.22
2022-08-19T16:59:49.283Z,19.19
2022-08-19T17:02:23.386Z,19.18
2022-08-19T17:04:58.612Z,19.32
2022-08-19T17:07:27.753Z,19.31
2022-08-19T17:09:55.834Z,19.40
2022-08-19T17:12:30.543Z,19.42
2022-08-19T17:15:01.447Z,19.52
2022-08-19T17:17:29.843Z,19.53
2022-08-19T17:19:59.173Z,19.66
2022-08-19T17:22:26.968Z,19.78
2022-08-19T17:24:56.319Z,19.73
2022-08-19T17:27:26.986Z,19.64
2022-08-19T17:29:59.908Z,19.73
2022-08-19T17:32:27.570Z,19.80
2022-08-19T17:34:54.956Z,19.74
2022-08-19T17:37:22.996Z,19.64
2022-08-19T17:39:50.441Z,19.71
2022-08-19T17:42:17.811Z,19.71
2022-08-19T17:44:50.771Z,19.71
2022-08-19T17:47:19.557Z,19.72
2022-08-19T17:49:47.186Z,19.77
2022-08-19T17:52:14.608Z,19.80
2022-08-19T17:54:41.987Z,19.72
2022-08-19T17:57:09.633Z,19.62
2022-08-19T17:59:39.927Z,19.60
2022-08-19T18:02:10.131Z,19.57
2022-08-19T18:04:38.956Z,19.71
2022-08-19T18:07:06.448Z,19.63
2022-08-19T18:09:41.743Z,19.54
2022-08-19T18:12:12.701Z,19.43
2022-08-19T18:14:41.634Z,19.46
2022-08-19T18:17:12.384Z,19.34
2022-08-19T18:19:43.009Z,19.19
2022-08-19T18:22:36.788Z,19.09
2022-08-19T18:25:10.742Z,19.09
2022-08-19T18:27:38.152Z,19.03
2022-08-19T18:30:07.576Z,18.96
2022-08-19T18:32:35.354Z,18.91
2022-08-19T18:35:06.489Z,18.86
2022-08-19T18:37:33.815Z,18.80
2022-08-19T18:40:19.751Z,18.72
2022-08-19T18:43:23.568Z,18.66
2022-08-19T18:46:10.168Z,18.65
2022-08-19T18:48:57.065Z,18.63
2022-08-19T18:51:28.453Z,18.54
2022-08-19T18:53:58.794Z,18.47
2022-08-19T18:56:31.162Z,18.53
2022-08-19T18:59:02.291Z,18.47
2022-08-19T19:01:36.676Z,18.38
2022-08-19T19:04:10.590Z,18.34
2022-08-19T19:06:40.930Z,18.30
2022-08-19T19:09:13.936Z,18.25
2022-08-19T19:11:46.502Z,18.21
2022-08-19T19:14:45.797Z,18.14
2022-08-19T19:17:12.676Z,18.29
2022-08-19T19:19:42.673Z,18.31
2022-08-19T19:22:18.397Z,18.34
2022-08-19T19:24:45.973Z,18.20
2022-08-19T19:27:15.073Z,18.12
2022-08-19T19:29:43.112Z,18.10
2022-08-19T19:32:26.260Z,18.06
2022-08-19T19:34:53.970Z,18.21
2022-08-19T19:37:22.485Z,18.23
2022-08-19T19:39:50.035Z,18.42
2022-08-19T19:42:22.628Z,18.41
2022-08-19T19:44:52.167Z,18.43
2022-08-19T19:47:21.337Z,18.31
2022-08-19T19:50:13.350Z,18.24
2022-08-19T19:52:40.640Z,18.33
2022-08-19T19:55:09.430Z,18.25
2022-08-19T19:57:39.263Z,18.25
2022-08-19T20:00:09.074Z,18.10
2022-08-19T20:02:36.473Z,18.11
2022-08-19T20:05:04.177Z,18.09
2022-08-19T20:07:50.572Z,17.93
2022-08-19T20:10:18.023Z,17.81
2022-08-19T20:12:45.364Z,17.78
2022-08-19T20:15:13.924Z,17.94
2022-08-19T20:17:42.982Z,17.90
2022-08-19T20:20:15.026Z,18.01
2022-08-19T20:22:43.577Z,18.03
2022-08-19T20:25:12.094Z,18.14
2022-08-19T20:27:40.318Z,18.16
2022-08-19T20:30:13.920Z,18.20
2022-08-19T20:32:47.828Z,18.18
2022-08-19T20:35:18.672Z,18.22
2022-08-19T20:37:46.109Z,18.23
2022-08-19T20:40:14.244Z,18.28
2022-08-19T20:42:42.989Z,18.30
2022-08-19T20:45:32.153Z,18.31
2022-08-19T20:48:03.106Z,18.25
2022-08-19T20:50:32.008Z,18.34
2022-08-19T20:52:59.415Z,18.49
2022-08-19T20:55:28.108Z,18.44
2022-08-19T20:57:55.910Z,18.50
2022-08-19T21:00:23.422Z,18.43
2022-08-19T21:02:50.834Z,18.44
2022-08-19T21:05:18.500Z,18.60
2022-08-19T21:07:46.244Z,18.44
2022-08-19T21:10:14.281Z,18.29
2022-08-19T21:12:43.681Z,18.29
2022-08-19T21:15:11.357Z,18.51
2022-08-19T21:17:38.977Z,18.54
2022-08-19T21:20:09.527Z,18.40
2022-08-19T21:22:37.189Z,18.36
2022-08-19T21:25:05.644Z,18.39
2022-08-19T21:27:33.391Z,18.54
2022-08-19T21:30:00.822Z,18.56
2022-08-19T21:32:28.182Z,18.52
2022-08-19T21:34:55.609Z,18.53
2022-08-19T21:37:25.835Z,18.46
2022-08-19T21:39:54.695Z,18.51
2022-08-19T21:42:23.880Z,18.55
2022-08-19T21:44:51.456Z,18.42
2022-08-19T21:47:18.831Z,18.16
2022-08-19T21:49:46.305Z,18.05
2022-08-19T21:52:13.900Z,18.22
2022-08-19T21:54:41.742Z,18.32
2022-08-19T21:57:10.535Z,18.30
2022-08-19T21:59:44.089Z,18.33
2022-08-19T22:02:22.367Z,18.43
2022-08-19T22:04:51.349Z,18.45
2022-08-19T22:07:19.524Z,18.45
2022-08-19T22:09:47.975Z,18.43
2022-08-19T22:12:24.575Z,18.38
2022-08-19T22:14:52.810Z,18.42
2022-08-19T22:17:22.709Z,18.47
2022-08-19T22:19:52.370Z,18.46
2022-08-19T22:22:31.024Z,18.46
2022-08-19T22:25:29.051Z,18.44
2022-08-19T22:28:01.691Z,18.48
2022-08-19T22:30:33.406Z,18.43
2022-08-19T22:33:03.906Z,18.42
2022-08-19T22:35:33.660Z,18.36
2022-08-19T22:38:02.207Z,18.14
2022-08-19T22:40:31.012Z,18.01
2022-08-19T22:43:06.351Z,17.90
2022-08-19T22:45:36.240Z,17.81
2022-08-19T22:48:07.661Z,17.89
2022-08-19T22:50:35.911Z,17.83
2022-08-19T22:53:03.604Z,18.02
2022-08-19T22:55:31.554Z,18.08
2022-08-19T22:57:59.097Z,17.92
2022-08-19T23:00:28.155Z,17.85
2022-08-19T23:02:57.482Z,17.69
2022-08-19T23:05:27.479Z,17.55
2022-08-19T23:07:57.313Z,17.64
2022-08-19T23:10:27.294Z,17.45
2022-08-19T23:12:57.854Z,17.41
2022-08-19T23:15:28.920Z,17.35
2022-08-19T23:18:02.421Z,17.36
2022-08-19T23:20:32.912Z,17.14
2022-08-19T23:23:03.835Z,17.22
2022-08-19T23:25:33.029Z,17.04
2022-08-19T23:28:19.542Z,17.01
2022-08-19T23:30:49.133Z,16.95
2022-08-19T23:33:51.011Z,16.89
2022-08-19T23:36:17.622Z,16.88
2022-08-19T23:38:46.602Z,16.87
2022-08-19T23:41:15.286Z,16.86
2022-08-19T23:43:42.989Z,17.01
2022-08-19T23:46:12.999Z,17.13
2022-08-19T23:48:40.413Z,17.16
2022-08-19T23:51:11.703Z,16.98
2022-08-19T23:53:40.497Z,16.86
2022-08-19T23:56:09.470Z,16.94
2022-08-19T23:58:37.897Z,16.75
